Parq Terranova, Puerto Rico
Current Conditions -  °F | °C
As of 9:56 AM on Wednesday 28 Jan 2015 (Local Time) from TJSJ Reporting Station
Scattered Clouds Scattered Clouds  
Wind Chill: 83°   Ceiling: Unl
Heat Index: 87°   Visibility: 10mi
Dew Point: 70°   Wind: 5mph
Humidity: 65%   Direction: 200°SSW
Pressure: 30.05"   Gusts: NA
Location:  18.3866°N, 66.1135°W
Report Text: TJSJ 281356Z 20004KT 10SM FEW030 SCT060 28/21 A3005 RMK AO2 SLP173 T02830211
Loading
Personal Weather Stations






























Interactive Weather Map New forecast layout! Learn more

10-Day Weather Forecast

Advertisements
Track Severe Weather on mobile